Time;durP1;ratioP1;P1;durP2;ratioP2;P2;SDS_P1;SDS_P2;PMS_P1;PMS_P2;Temp;Humidity;BMP_temperature;BMP_pressure;BME280_temperature;BME280_humidity;BME280_pressure;Samples;Min_cycle;Max_cycle;Signal;HPM_P1;HPM_P2
2022/11/12 08:04:40;;;;;;;;;5.00;4.25;;;;;;;;5121509;27;13423;-72
2022/11/12 08:07:05;;;;;;;;;3.00;3.00;;;;;;;;5124904;27;11432;-71
2022/11/12 08:09:31;;;;;;;;;4.25;4.25;;;;;;;;5123147;27;8836;-71
2022/11/12 08:11:56;;;;;;;;;9.25;8.00;;;;;;;;5125434;27;8816;-72
2022/11/12 08:14:21;;;;;;;;;9.25;9.25;;;;;;;;5122798;27;8855;-73
2022/11/12 08:16:47;;;;;;;;;8.25;7.00;;;;;;;;5122798;27;8983;-73
2022/11/12 08:19:12;;;;;;;;;6.75;6.75;;;;;;;;5124409;27;8885;-70
2022/11/12 08:21:37;;;;;;;;;9.00;7.00;;;;;;;;5125063;27;8813;-71
2022/11/12 08:24:02;;;;;;;;;6.00;6.00;;;;;;;;5125054;27;8943;-72
2022/11/12 08:26:28;;;;;;;;;1.25;1.25;;;;;;;;5125469;27;8793;-71
2022/11/12 08:28:53;;;;;;;;;4.50;4.00;;;;;;;;5124324;27;8872;-71
2022/11/12 08:31:19;;;;;;;;;8.25;7.00;;;;;;;;5125621;27;8785;-70
2022/11/12 08:33:45;;;;;;;;;10.00;7.50;;;;;;;;5125194;27;8805;-71
2022/11/12 08:36:12;;;;;;;;;6.00;6.00;;;;;;;;5125586;27;11470;-72
2022/11/12 08:38:38;;;;;;;;;7.50;6.00;;;;;;;;5123325;27;8948;-70
2022/11/12 08:41:05;;;;;;;;;9.75;6.00;;;;;;;;5127257;27;11370;-71
2022/11/12 08:43:30;;;;;;;;;5.50;2.00;;;;;;;;5125805;27;11430;-69
2022/11/12 08:45:59;;;;;;;;;2.00;2.00;;;;;;;;5125231;27;11214;-69
2022/11/12 08:48:24;;;;;;;;;3.00;3.00;;;;;;;;5125139;27;8757;-68
2022/11/12 08:50:50;;;;;;;;;2.00;2.00;;;;;;;;5122576;27;11384;-70
2022/11/12 08:53:15;;;;;;;;;1.50;1.25;;;;;;;;5124894;27;8829;-70
2022/11/12 08:55:40;;;;;;;;;3.00;2.00;;;;;;;;5125164;27;8778;-68
2022/11/12 08:58:06;;;;;;;;;3.00;3.00;;;;;;;;5124653;27;8828;-69
2022/11/12 09:00:32;;;;;;;;;2.00;2.00;;;;;;;;5124857;27;8874;-70
2022/11/12 09:03:02;;;;;;;;;3.00;2.00;;;;;;;;5124703;27;8813;-70
2022/11/12 09:05:27;;;;;;;;;3.00;3.00;;;;;;;;5124194;27;11448;-71
2022/11/12 09:08:00;;;;;;;;;2.00;1.75;;;;;;;;5124344;27;11387;-72
2022/11/12 09:10:26;;;;;;;;;1.00;1.00;;;;;;;;5126989;27;8823;-72
2022/11/12 09:12:51;;;;;;;;;1.50;1.50;;;;;;;;5119702;27;11133;-68
2022/11/12 09:15:16;;;;;;;;;2.25;2.25;;;;;;;;5112535;27;8901;-71
2022/11/12 09:17:42;;;;;;;;;2.00;2.00;;;;;;;;5111768;28;8809;-72
2022/11/12 09:20:07;;;;;;;;;3.25;3.25;;;;;;;;5110552;28;8810;-71
2022/11/12 09:22:33;;;;;;;;;1.25;1.25;;;;;;;;5105258;28;8851;-71
2022/11/12 09:25:04;;;;;;;;;1.00;1.00;;;;;;;;5093160;28;8814;-71
2022/11/12 09:27:29;;;;;;;;;3.25;2.25;;;;;;;;5090145;28;8811;-72
2022/11/12 09:29:55;;;;;;;;;4.50;2.00;;;;;;;;5088239;28;10629;-72
2022/11/12 09:32:20;;;;;;;;;3.00;3.00;;;;;;;;5089610;28;8802;-75
2022/11/12 09:34:45;;;;;;;;;6.75;4.00;;;;;;;;5089012;28;8799;-71
2022/11/12 09:37:11;;;;;;;;;3.50;2.50;;;;;;;;5089335;28;8881;-71
2022/11/12 09:39:36;;;;;;;;;4.75;4.75;;;;;;;;5104472;28;8964;-70
2022/11/12 09:42:12;;;;;;;;;7.00;7.00;;;;;;;;5108896;28;8813;-71
2022/11/12 09:44:39;;;;;;;;;9.25;9.25;;;;;;;;5106498;28;8801;-70
2022/11/12 09:47:18;;;;;;;;;14.25;9.75;;;;;;;;5110548;28;11163;-70
2022/11/12 09:49:43;;;;;;;;;8.50;8.00;;;;;;;;5110000;28;11317;-71
2022/11/12 09:52:28;;;;;;;;;11.00;8.00;;;;;;;;5111245;28;11344;-71
2022/11/12 09:55:00;;;;;;;;;11.00;10.00;;;;;;;;5110631;27;8947;-71
2022/11/12 09:57:26;;;;;;;;;10.75;9.75;;;;;;;;5111405;28;11795;-72
2022/11/12 09:59:52;;;;;;;;;4.25;4.00;;;;;;;;5111049;28;11290;-72
2022/11/12 10:02:23;;;;;;;;;10.00;7.25;;;;;;;;5110984;28;8801;-72
2022/11/12 10:04:55;;;;;;;;;8.25;8.00;;;;;;;;5110922;28;8797;-70
2022/11/12 10:07:23;;;;;;;;;7.75;7.75;;;;;;;;5108031;28;10981;-71
2022/11/12 10:09:57;;;;;;;;;7.50;7.50;;;;;;;;5110684;28;10764;-71
2022/11/12 10:12:33;;;;;;;;;7.75;7.75;;;;;;;;5108260;28;10720;-71
2022/11/12 10:17:54;;;;;;;;;9.75;8.50;;;;;;;;5088438;28;10846;-72
2022/11/12 10:20:19;;;;;;;;;11.00;9.50;;;;;;;;5110446;27;10779;-71
2022/11/12 10:23:13;;;;;;;;;10.50;9.00;;;;;;;;5110601;28;10939;-71
2022/11/12 10:25:42;;;;;;;;;9.00;8.00;;;;;;;;5104533;28;8821;-72
2022/11/12 10:28:33;;;;;;;;;5.00;4.00;;;;;;;;5110346;28;10789;-70
2022/11/12 10:31:01;;;;;;;;;5.75;4.00;;;;;;;;5098559;28;11294;-70
2022/11/12 10:33:30;;;;;;;;;12.00;12.00;;;;;;;;5110589;28;10689;-72
2022/11/12 10:36:01;;;;;;;;;15.50;13.50;;;;;;;;5109715;27;10970;-72
2022/11/12 10:38:27;;;;;;;;;14.00;13.00;;;;;;;;5109560;28;11737;-72
2022/11/12 10:40:52;;;;;;;;;12.25;11.00;;;;;;;;5109403;28;10946;-72
2022/11/12 10:43:17;;;;;;;;;12.00;9.00;;;;;;;;5110478;28;11131;-73
2022/11/12 10:45:44;;;;;;;;;14.75;13.25;;;;;;;;5110578;28;8789;-72
2022/11/12 10:48:31;;;;;;;;;8.75;6.50;;;;;;;;5110725;28;8801;-72
2022/11/12 10:50:57;;;;;;;;;10.00;5.75;;;;;;;;5110667;28;10456;-72
2022/11/12 10:53:31;;;;;;;;;8.50;8.00;;;;;;;;5110330;28;10715;-72
2022/11/12 10:55:58;;;;;;;;;2.00;2.00;;;;;;;;5110588;28;8797;-72
2022/11/12 10:58:24;;;;;;;;;1.00;1.00;;;;;;;;5110416;28;10541;-72
2022/11/12 11:00:55;;;;;;;;;5.00;5.00;;;;;;;;5112777;28;10249;-72
2022/11/12 11:03:22;;;;;;;;;5.00;5.00;;;;;;;;5111418;28;8847;-72
2022/11/12 11:05:52;;;;;;;;;2.00;2.00;;;;;;;;5110324;28;10296;-72
2022/11/12 11:08:38;;;;;;;;;10.50;9.00;;;;;;;;5110170;28;10390;-72
2022/11/12 11:11:09;;;;;;;;;3.50;3.00;;;;;;;;5110297;28;10789;-72
2022/11/12 11:13:34;;;;;;;;;1.00;1.00;;;;;;;;5110182;27;10488;-72
2022/11/12 11:16:01;;;;;;;;;1.00;1.00;;;;;;;;5110437;28;10306;-72
2022/11/12 11:18:28;;;;;;;;;0.00;0.00;;;;;;;;5110085;28;8853;-72
2022/11/12 11:21:07;;;;;;;;;0.00;0.00;;;;;;;;5108282;28;10315;-72
2022/11/12 11:23:38;;;;;;;;;0.00;0.00;;;;;;;;5109965;28;10306;-73
2022/11/12 11:26:22;;;;;;;;;0.00;0.00;;;;;;;;5110360;28;10226;-75
2022/11/12 11:28:57;;;;;;;;;0.00;0.00;;;;;;;;5108202;28;10094;-74
2022/11/12 11:31:28;;;;;;;;;0.00;0.00;;;;;;;;5110061;28;10129;-75
2022/11/12 11:33:53;;;;;;;;;3.75;3.00;;;;;;;;5109666;28;10077;-68
2022/11/12 11:36:27;;;;;;;;;2.00;2.00;;;;;;;;5106910;27;10691;-68
2022/11/12 11:39:25;;;;;;;;;0.00;0.00;;;;;;;;5101679;28;8813;-68
2022/11/12 11:41:53;;;;;;;;;0.25;0.00;;;;;;;;5095094;28;10101;-68
2022/11/12 11:44:24;;;;;;;;;0.00;0.00;;;;;;;;5108482;28;10082;-70
2022/11/12 11:46:56;;;;;;;;;0.00;0.00;;;;;;;;5101964;28;9969;-69
2022/11/12 11:49:24;;;;;;;;;1.50;0.00;;;;;;;;5104652;28;10260;-71
2022/11/12 11:52:01;;;;;;;;;0.00;0.00;;;;;;;;5108560;28;10083;-72
2022/11/12 11:54:30;;;;;;;;;0.00;0.00;;;;;;;;5106576;28;10192;-71
2022/11/12 11:56:57;;;;;;;;;0.00;0.00;;;;;;;;5108032;28;11161;-68
2022/11/12 11:59:28;;;;;;;;;0.00;0.00;;;;;;;;5110666;27;10214;-69
2022/11/12 12:01:53;;;;;;;;;1.00;0.00;;;;;;;;5128394;27;9896;-69
2022/11/12 12:04:22;;;;;;;;;0.00;0.00;;;;;;;;5128118;27;10017;-73
2022/11/12 12:07:08;;;;;;;;;0.00;0.00;;;;;;;;5129803;27;9493;-72
2022/11/12 12:09:50;;;;;;;;;0.00;0.00;;;;;;;;5127103;27;10017;-74
2022/11/12 12:12:25;;;;;;;;;0.00;0.00;;;;;;;;5129841;27;9830;-72
2022/11/12 12:15:01;;;;;;;;;0.00;0.00;;;;;;;;5112053;28;10048;-74
2022/11/12 12:17:26;;;;;;;;;0.75;0.75;;;;;;;;5107968;28;10017;-74
2022/11/12 12:20:03;;;;;;;;;0.00;0.00;;;;;;;;5107904;28;10917;-73
2022/11/12 12:22:43;;;;;;;;;1.00;0.00;;;;;;;;5109089;28;8808;-74
2022/11/12 12:25:09;;;;;;;;;0.00;0.00;;;;;;;;5108654;28;10733;-73
2022/11/12 12:27:36;;;;;;;;;1.00;0.00;;;;;;;;5107974;27;10119;-74
2022/11/12 12:30:12;;;;;;;;;1.00;1.00;;;;;;;;5106388;28;8935;-73
2022/11/12 12:32:42;;;;;;;;;0.50;0.00;;;;;;;;5104615;28;10817;-73
2022/11/12 12:35:26;;;;;;;;;1.00;1.00;;;;;;;;5108438;28;10220;-73
2022/11/12 12:38:01;;;;;;;;;0.00;0.00;;;;;;;;5107461;27;10416;-73
2022/11/12 12:40:37;;;;;;;;;0.00;0.00;;;;;;;;5107636;28;10082;-73
2022/11/12 12:43:09;;;;;;;;;0.00;0.00;;;;;;;;5109236;28;10091;-73
2022/11/12 12:45:40;;;;;;;;;0.00;0.00;;;;;;;;5108453;28;10026;-72
2022/11/12 12:48:10;;;;;;;;;0.00;0.00;;;;;;;;5107569;27;10017;-70
2022/11/12 12:50:36;;;;;;;;;0.00;0.00;;;;;;;;5111081;28;9871;-73
2022/11/12 12:53:04;;;;;;;;;0.00;0.00;;;;;;;;5110576;28;9972;-75
2022/11/12 12:55:34;;;;;;;;;0.00;0.00;;;;;;;;5109587;28;9952;-72
2022/11/12 12:57:59;;;;;;;;;0.00;0.00;;;;;;;;5103723;27;10286;-79
2022/11/12 13:00:30;;;;;;;;;0.00;0.00;;;;;;;;5112197;28;10076;-73
2022/11/12 13:02:56;;;;;;;;;0.00;0.00;;;;;;;;5107483;28;8806;-75
2022/11/12 13:05:24;;;;;;;;;0.00;0.00;;;;;;;;5110261;28;10944;-71
2022/11/12 13:07:49;;;;;;;;;1.00;0.00;;;;;;;;5109966;27;8793;-73
2022/11/12 13:10:33;;;;;;;;;0.00;0.00;;;;;;;;5105328;28;10832;-73
2022/11/12 13:13:22;;;;;;;;;0.00;0.00;;;;;;;;5106174;28;8824;-72
2022/11/12 13:15:48;;;;;;;;;0.00;0.00;;;;;;;;5109272;28;10026;-73
2022/11/12 13:18:32;;;;;;;;;0.00;0.00;;;;;;;;5109312;27;10047;-71
2022/11/12 13:21:06;;;;;;;;;0.00;0.00;;;;;;;;5113341;28;9985;-73
2022/11/12 13:26:38;;;;;;;;;0.00;0.00;;;;;;;;5110404;28;9942;-73
2022/11/12 13:29:36;;;;;;;;;0.75;0.00;;;;;;;;5107971;27;10673;-73
2022/11/12 13:32:20;;;;;;;;;0.00;0.00;;;;;;;;5084904;28;9850;-72
2022/11/12 13:34:45;;;;;;;;;0.00;0.00;;;;;;;;5088031;28;10046;-73
2022/11/12 13:49:34;;;;;;;;;1.25;0.00;;;;;;;;5108846;27;13400;-70
2022/11/12 13:51:59;;;;;;;;;1.00;0.00;;;;;;;;5106533;28;10409;-70
2022/11/12 13:54:32;;;;;;;;;0.00;0.00;;;;;;;;5106547;28;10187;-69
2022/11/12 13:57:16;;;;;;;;;0.00;0.00;;;;;;;;5107055;28;8816;-70
2022/11/12 13:59:42;;;;;;;;;0.00;0.00;;;;;;;;5105181;28;10096;-69
2022/11/12 14:02:19;;;;;;;;;0.00;0.00;;;;;;;;5106147;28;10158;-69
2022/11/12 14:04:44;;;;;;;;;1.25;1.00;;;;;;;;5106096;28;8784;-70
2022/11/12 14:07:19;;;;;;;;;0.00;0.00;;;;;;;;5105913;28;10239;-70
2022/11/12 14:09:59;;;;;;;;;0.00;0.00;;;;;;;;5107955;28;8828;-70
2022/11/12 14:12:27;;;;;;;;;0.00;0.00;;;;;;;;5104943;28;9874;-70
2022/11/12 14:15:08;;;;;;;;;0.00;0.00;;;;;;;;5119168;27;10214;-69
2022/11/12 14:17:46;;;;;;;;;1.50;0.00;;;;;;;;5126242;27;10061;-72
2022/11/12 14:20:31;;;;;;;;;0.00;0.00;;;;;;;;5103306;28;10076;-69
2022/11/12 14:23:03;;;;;;;;;0.00;0.00;;;;;;;;5105973;28;9993;-70
2022/11/12 14:25:30;;;;;;;;;0.00;0.00;;;;;;;;5106485;28;10101;-70
2022/11/12 14:27:55;;;;;;;;;1.00;0.00;;;;;;;;5104612;28;10156;-70
2022/11/12 14:30:22;;;;;;;;;0.00;0.00;;;;;;;;5105577;28;10093;-70
2022/11/12 14:32:50;;;;;;;;;2.00;0.25;;;;;;;;5105577;28;8805;-70
2022/11/12 14:35:18;;;;;;;;;0.00;0.00;;;;;;;;5104361;28;10251;-69
2022/11/12 14:37:58;;;;;;;;;0.00;0.00;;;;;;;;5104125;27;10718;-69
2022/11/12 14:40:25;;;;;;;;;2.50;1.00;;;;;;;;5105585;28;10031;-69
2022/11/12 14:42:51;;;;;;;;;4.75;3.00;;;;;;;;5102372;28;10399;-69
2022/11/12 14:45:17;;;;;;;;;1.50;1.50;;;;;;;;5101481;27;10683;-69
2022/11/12 14:47:44;;;;;;;;;1.00;1.00;;;;;;;;5112483;27;8916;-70
2022/11/12 14:50:17;;;;;;;;;0.25;0.25;;;;;;;;5105383;28;10533;-70
2022/11/12 14:52:46;;;;;;;;;0.50;0.00;;;;;;;;5105077;28;11346;-69
2022/11/12 14:55:14;;;;;;;;;0.75;0.75;;;;;;;;5105133;28;10458;-70
2022/11/12 14:57:40;;;;;;;;;1.75;1.00;;;;;;;;5105241;28;10726;-70
2022/11/12 15:00:24;;;;;;;;;0.50;0.50;;;;;;;;5089606;28;10741;-71
2022/11/12 15:02:49;;;;;;;;;2.00;0.00;;;;;;;;5071595;28;8972;-70
2022/11/12 15:05:16;;;;;;;;;0.25;0.25;;;;;;;;5071456;28;10797;-70
2022/11/12 15:07:51;;;;;;;;;1.50;1.00;;;;;;;;5071436;28;8860;-69
2022/11/12 15:10:31;;;;;;;;;1.50;1.00;;;;;;;;5071585;28;11305;-70
2022/11/12 15:13:17;;;;;;;;;2.00;1.00;;;;;;;;5070135;28;10718;-70
2022/11/12 15:15:57;;;;;;;;;0.75;0.75;;;;;;;;5110917;28;10739;-70
2022/11/12 15:18:24;;;;;;;;;0.00;0.00;;;;;;;;5111873;28;10503;-70
2022/11/12 15:21:05;;;;;;;;;1.00;0.50;;;;;;;;5111785;28;10547;-69
2022/11/12 15:23:31;;;;;;;;;1.50;0.50;;;;;;;;5111756;28;10581;-68
2022/11/12 15:26:00;;;;;;;;;0.00;0.00;;;;;;;;5111867;27;10586;-69
2022/11/12 15:28:25;;;;;;;;;0.00;0.00;;;;;;;;5110010;28;8821;-70
2022/11/12 15:31:00;;;;;;;;;0.00;0.00;;;;;;;;5111628;27;10711;-70
2022/11/12 15:33:25;;;;;;;;;0.50;0.00;;;;;;;;5111746;28;8801;-72
2022/11/12 15:35:57;;;;;;;;;0.00;0.00;;;;;;;;5111495;28;10274;-70
2022/11/12 15:38:24;;;;;;;;;0.00;0.00;;;;;;;;5074510;28;8984;-70
2022/11/12 15:40:54;;;;;;;;;0.00;0.00;;;;;;;;5068817;28;10400;-71
2022/11/12 15:43:24;;;;;;;;;0.00;0.00;;;;;;;;5069289;28;10329;-70
2022/11/12 15:45:50;;;;;;;;;0.00;0.00;;;;;;;;5073199;28;10404;-70
2022/11/12 15:48:16;;;;;;;;;0.00;0.00;;;;;;;;5078099;28;10296;-74
2022/11/12 15:50:41;;;;;;;;;0.00;0.00;;;;;;;;5069350;28;11088;-72
2022/11/12 15:53:06;;;;;;;;;0.00;0.00;;;;;;;;5070700;28;8913;-76
2022/11/12 15:55:32;;;;;;;;;0.00;0.00;;;;;;;;5070525;28;8817;-72
2022/11/12 15:57:58;;;;;;;;;0.00;0.00;;;;;;;;5070500;28;8951;-75
2022/11/12 16:00:24;;;;;;;;;1.00;0.00;;;;;;;;5070287;28;10383;-74
2022/11/12 16:03:09;;;;;;;;;0.00;0.00;;;;;;;;5070331;28;8810;-70
2022/11/12 16:05:35;;;;;;;;;0.50;0.50;;;;;;;;5070373;28;10332;-73
2022/11/12 16:08:00;;;;;;;;;0.00;0.00;;;;;;;;5069831;28;10411;-71
2022/11/12 16:10:25;;;;;;;;;0.00;0.00;;;;;;;;5069973;28;8795;-70
2022/11/12 16:12:51;;;;;;;;;0.00;0.00;;;;;;;;5080804;28;8884;-70
2022/11/12 16:15:17;;;;;;;;;0.00;0.00;;;;;;;;5106239;28;8884;-70
2022/11/12 16:17:43;;;;;;;;;0.00;0.00;;;;;;;;5110799;28;9682;-70
2022/11/12 16:20:13;;;;;;;;;0.00;0.00;;;;;;;;5110553;28;10372;-70
2022/11/12 16:22:38;;;;;;;;;0.00;0.00;;;;;;;;5110408;28;8781;-69
2022/11/12 16:25:04;;;;;;;;;0.00;0.00;;;;;;;;5110589;28;10367;-69
2022/11/12 16:27:29;;;;;;;;;0.00;0.00;;;;;;;;5110410;28;8817;-70
2022/11/12 16:29:55;;;;;;;;;1.00;0.00;;;;;;;;5108531;28;9599;-70
2022/11/12 16:32:20;;;;;;;;;1.75;1.00;;;;;;;;5109152;28;8825;-70
2022/11/12 16:34:46;;;;;;;;;2.00;1.00;;;;;;;;5110105;28;8877;-70
2022/11/12 16:37:12;;;;;;;;;30.00;27.25;;;;;;;;5110281;28;8789;-71
2022/11/12 16:39:37;;;;;;;;;29.50;27.50;;;;;;;;5110142;28;8805;-71
2022/11/12 16:42:02;;;;;;;;;2.00;1.00;;;;;;;;5033029;28;10914;-70
2022/11/12 16:44:28;;;;;;;;;4.25;3.00;;;;;;;;4984576;28;11453;-70
2022/11/12 16:46:53;;;;;;;;;2.00;0.00;;;;;;;;5053245;28;8832;-70
2022/11/12 16:49:20;;;;;;;;;1.75;1.75;;;;;;;;5049372;28;8841;-70
2022/11/12 16:51:45;;;;;;;;;2.00;2.00;;;;;;;;5049450;28;8789;-70
2022/11/12 16:54:11;;;;;;;;;1.00;1.00;;;;;;;;5023882;28;10928;-70
2022/11/12 16:56:36;;;;;;;;;1.25;1.00;;;;;;;;5011582;28;8872;-72
2022/11/12 16:59:01;;;;;;;;;29.00;28.25;;;;;;;;5009763;28;8853;-72
2022/11/12 17:01:28;;;;;;;;;15.50;13.00;;;;;;;;5014969;28;8813;-71
2022/11/12 17:03:54;;;;;;;;;34.50;32.75;;;;;;;;5027996;28;8849;-70
2022/11/12 17:06:20;;;;;;;;;24.50;17.75;;;;;;;;5028993;28;11544;-70
2022/11/12 17:08:47;;;;;;;;;39.50;37.00;;;;;;;;5028162;28;11520;-68
2022/11/12 17:11:13;;;;;;;;;27.50;23.25;;;;;;;;5028667;28;11568;-69
2022/11/12 17:13:38;;;;;;;;;7.00;6.00;;;;;;;;5030131;28;11545;-68
2022/11/12 17:16:05;;;;;;;;;1.00;1.00;;;;;;;;5048665;28;11027;-69
2022/11/12 17:18:30;;;;;;;;;1.00;1.00;;;;;;;;5044969;28;8877;-68
2022/11/12 17:20:56;;;;;;;;;1.00;1.00;;;;;;;;5028627;28;10705;-68
2022/11/12 17:23:21;;;;;;;;;1.00;1.00;;;;;;;;5028464;28;8828;-67
2022/11/12 17:25:46;;;;;;;;;3.50;1.00;;;;;;;;5029282;28;8900;-69
2022/11/12 17:28:12;;;;;;;;;1.00;1.00;;;;;;;;5028362;28;9014;-68
2022/11/12 17:30:37;;;;;;;;;2.50;1.00;;;;;;;;5045821;28;9575;-69
2022/11/12 17:33:03;;;;;;;;;2.00;2.00;;;;;;;;5046462;28;8848;-68
2022/11/12 17:35:28;;;;;;;;;1.00;1.00;;;;;;;;5048264;28;8789;-71
2022/11/12 17:37:53;;;;;;;;;3.50;3.00;;;;;;;;5048598;28;8785;-70
2022/11/12 17:40:19;;;;;;;;;6.00;3.00;;;;;;;;5045814;28;8805;-72
2022/11/12 17:42:44;;;;;;;;;2.25;2.25;;;;;;;;5032918;28;8801;-71
2022/11/12 17:45:09;;;;;;;;;1.00;1.00;;;;;;;;5043545;28;8886;-70
2022/11/12 17:47:35;;;;;;;;;2.75;1.25;;;;;;;;5047876;28;9754;-68
2022/11/12 17:50:00;;;;;;;;;3.75;2.00;;;;;;;;5047498;28;8874;-69
2022/11/12 17:52:25;;;;;;;;;1.25;1.00;;;;;;;;5047731;28;8805;-69
2022/11/12 17:54:51;;;;;;;;;4.50;1.00;;;;;;;;5048352;28;9590;-68
2022/11/12 17:57:16;;;;;;;;;2.00;1.25;;;;;;;;5048468;28;8886;-68
2022/11/12 17:59:41;;;;;;;;;1.00;1.00;;;;;;;;5048252;28;8832;-69
2022/11/12 18:02:10;;;;;;;;;1.00;1.00;;;;;;;;5046818;28;8888;-71
2022/11/12 18:04:35;;;;;;;;;2.00;1.00;;;;;;;;5048188;28;8797;-71
2022/11/12 18:07:01;;;;;;;;;1.00;1.00;;;;;;;;5033128;28;11454;-67
2022/11/12 18:09:26;;;;;;;;;1.00;1.00;;;;;;;;5028608;28;8836;-68
2022/11/12 18:11:53;;;;;;;;;0.00;0.00;;;;;;;;5027175;28;8836;-69
2022/11/12 18:14:18;;;;;;;;;1.00;1.00;;;;;;;;5036408;28;8817;-68
2022/11/12 18:16:43;;;;;;;;;6.00;3.00;;;;;;;;5043279;28;10675;-68
2022/11/12 18:19:09;;;;;;;;;1.50;1.50;;;;;;;;5047359;28;8817;-67
2022/11/12 18:21:37;;;;;;;;;1.00;1.00;;;;;;;;5047557;28;8805;-67
2022/11/12 18:24:03;;;;;;;;;1.00;1.00;;;;;;;;5046392;28;11558;-66
2022/11/12 18:26:28;;;;;;;;;0.00;0.00;;;;;;;;5041546;28;10896;-67
2022/11/12 18:28:54;;;;;;;;;1.00;0.25;;;;;;;;5026764;28;8884;-67
2022/11/12 18:31:20;;;;;;;;;1.00;1.00;;;;;;;;5026908;28;8806;-66
2022/11/12 18:33:46;;;;;;;;;1.50;1.00;;;;;;;;5027056;28;10728;-67
2022/11/12 18:36:16;;;;;;;;;1.50;1.50;;;;;;;;5030729;28;11173;-68
2022/11/12 18:38:41;;;;;;;;;2.00;2.00;;;;;;;;5032226;28;8813;-67
2022/11/12 18:41:08;;;;;;;;;3.00;3.00;;;;;;;;5031666;28;10818;-67
2022/11/12 18:43:36;;;;;;;;;6.50;5.75;;;;;;;;5032615;28;8831;-67
2022/11/12 18:46:02;;;;;;;;;4.00;4.00;;;;;;;;4981319;28;11022;-67
2022/11/12 18:48:28;;;;;;;;;3.00;3.00;;;;;;;;4974215;28;11689;-68
2022/11/12 18:50:58;;;;;;;;;2.00;1.25;;;;;;;;5008382;28;10619;-70
2022/11/12 18:53:24;;;;;;;;;2.75;2.00;;;;;;;;5010591;28;8918;-68
2022/11/12 18:55:49;;;;;;;;;2.50;1.00;;;;;;;;5011806;28;10882;-67
2022/11/12 19:00:43;;;;;;;;;1.00;1.00;;;;;;;;4982186;28;8892;-75
2022/11/12 19:03:09;;;;;;;;;1.00;1.00;;;;;;;;4984681;28;10756;-73
2022/11/12 19:05:34;;;;;;;;;0.00;0.00;;;;;;;;4990829;28;8822;-74
2022/11/12 19:07:59;;;;;;;;;0.50;0.25;;;;;;;;4983466;28;8829;-74
2022/11/12 19:10:24;;;;;;;;;0.75;0.75;;;;;;;;4987576;28;8833;-73
2022/11/12 19:12:50;;;;;;;;;2.00;1.00;;;;;;;;4990092;28;8888;-75
2022/11/12 19:15:15;;;;;;;;;2.75;1.50;;;;;;;;4992373;28;8916;-78
2022/11/12 19:17:41;;;;;;;;;3.00;2.25;;;;;;;;4992147;28;8828;-73
2022/11/12 19:20:07;;;;;;;;;1.00;1.00;;;;;;;;4992202;28;8811;-74
2022/11/12 19:22:32;;;;;;;;;2.00;2.00;;;;;;;;5005229;28;10877;-73
2022/11/12 19:25:00;;;;;;;;;2.50;2.50;;;;;;;;5011651;28;9564;-73
2022/11/12 19:27:25;;;;;;;;;1.00;1.00;;;;;;;;5011673;28;8803;-70
2022/11/12 19:29:51;;;;;;;;;5.00;1.75;;;;;;;;5005913;28;11056;-74
2022/11/12 19:32:16;;;;;;;;;1.25;1.00;;;;;;;;4991775;28;8837;-76
2022/11/12 19:34:42;;;;;;;;;5.75;3.00;;;;;;;;5006996;28;8833;-73
2022/11/12 19:37:07;;;;;;;;;1.25;1.00;;;;;;;;5006856;28;8826;-73
2022/11/12 19:39:32;;;;;;;;;0.50;0.50;;;;;;;;4992122;28;8819;-73
2022/11/12 19:42:00;;;;;;;;;1.00;0.00;;;;;;;;5007476;28;8830;-73
2022/11/12 19:44:25;;;;;;;;;0.00;0.00;;;;;;;;4991985;28;8837;-73
2022/11/12 19:46:50;;;;;;;;;1.00;0.00;;;;;;;;4989866;28;10888;-74
2022/11/12 19:49:16;;;;;;;;;0.00;0.00;;;;;;;;4991710;28;8862;-74
2022/11/12 19:51:41;;;;;;;;;2.25;0.00;;;;;;;;4989541;28;8830;-70
2022/11/12 19:54:07;;;;;;;;;1.00;0.00;;;;;;;;4990736;28;8861;-72
2022/11/12 19:56:32;;;;;;;;;0.50;0.50;;;;;;;;4990563;28;8941;-72
2022/11/12 19:58:58;;;;;;;;;0.00;0.00;;;;;;;;4990289;28;8846;-70
2022/11/12 20:01:23;;;;;;;;;0.00;0.00;;;;;;;;4986625;28;8857;-69
2022/11/12 20:03:48;;;;;;;;;0.75;0.00;;;;;;;;4990402;28;9512;-68
2022/11/12 20:06:15;;;;;;;;;0.00;0.00;;;;;;;;4990435;28;8868;-68
2022/11/12 20:08:40;;;;;;;;;1.25;1.00;;;;;;;;4990172;28;8839;-69
2022/11/12 20:11:06;;;;;;;;;0.50;0.50;;;;;;;;5005401;28;10812;-69
2022/11/12 20:13:34;;;;;;;;;0.00;0.00;;;;;;;;4990280;28;8818;-71
2022/11/12 20:16:07;;;;;;;;;3.00;0.00;;;;;;;;4987591;28;8840;-69
2022/11/12 20:18:32;;;;;;;;;0.00;0.00;;;;;;;;4988654;28;10663;-68
2022/11/12 20:20:57;;;;;;;;;0.00;0.00;;;;;;;;4989941;28;10705;-70
2022/11/12 20:23:23;;;;;;;;;1.00;0.00;;;;;;;;4989682;28;9584;-72
2022/11/12 20:25:49;;;;;;;;;1.00;1.00;;;;;;;;4990211;28;8845;-70
2022/11/12 20:28:14;;;;;;;;;0.00;0.00;;;;;;;;4989975;28;8847;-71
2022/11/12 20:30:40;;;;;;;;;0.00;0.00;;;;;;;;4989894;28;9555;-71
2022/11/12 20:33:05;;;;;;;;;0.50;0.00;;;;;;;;4988689;28;9537;-72
2022/11/12 20:35:32;;;;;;;;;0.00;0.00;;;;;;;;4988841;28;8945;-73
2022/11/12 20:37:58;;;;;;;;;0.00;0.00;;;;;;;;4989567;28;8811;-74
2022/11/12 20:40:24;;;;;;;;;2.00;0.00;;;;;;;;4989335;28;10833;-73
2022/11/12 20:42:50;;;;;;;;;3.50;2.00;;;;;;;;4989804;28;8818;-73
2022/11/12 20:45:16;;;;;;;;;2.00;2.00;;;;;;;;4989770;28;8818;-71
2022/11/12 20:47:41;;;;;;;;;1.00;1.00;;;;;;;;4990783;28;11011;-69
2022/11/12 20:50:06;;;;;;;;;1.00;1.00;;;;;;;;4990167;28;9496;-69
2022/11/12 20:52:32;;;;;;;;;2.50;1.00;;;;;;;;4988792;28;8815;-70
2022/11/12 20:54:57;;;;;;;;;2.50;1.75;;;;;;;;4989614;28;8810;-69
2022/11/12 20:57:23;;;;;;;;;0.25;0.25;;;;;;;;4989298;28;8822;-70
2022/11/12 20:59:49;;;;;;;;;0.00;0.00;;;;;;;;4989654;28;9556;-71
2022/11/12 21:02:14;;;;;;;;;3.25;2.00;;;;;;;;4988055;28;11061;-72
2022/11/12 21:04:39;;;;;;;;;2.00;2.00;;;;;;;;4989454;28;8791;-72
2022/11/12 21:07:05;;;;;;;;;1.00;1.00;;;;;;;;4989365;28;8818;-70
2022/11/12 21:09:30;;;;;;;;;2.50;1.25;;;;;;;;4989372;28;8884;-70
2022/11/12 21:11:55;;;;;;;;;2.00;1.00;;;;;;;;4988656;28;8799;-70
2022/11/12 21:14:20;;;;;;;;;2.00;2.00;;;;;;;;4988673;28;8891;-71
2022/11/12 21:16:46;;;;;;;;;3.75;2.50;;;;;;;;4989136;28;8940;-71
2022/11/12 21:19:11;;;;;;;;;3.00;3.00;;;;;;;;4989164;28;8806;-73
2022/11/12 21:21:36;;;;;;;;;1.00;0.00;;;;;;;;4987839;28;8865;-73
2022/11/12 21:24:01;;;;;;;;;0.00;0.00;;;;;;;;4989107;28;8807;-73
2022/11/12 21:26:27;;;;;;;;;2.00;0.00;;;;;;;;4989442;28;8803;-74
2022/11/12 21:28:53;;;;;;;;;0.00;0.00;;;;;;;;4987793;28;8845;-74
2022/11/12 21:31:20;;;;;;;;;1.00;0.00;;;;;;;;4989170;28;8829;-74
2022/11/12 21:33:49;;;;;;;;;0.00;0.00;;;;;;;;4989184;28;10956;-73
2022/11/12 21:36:14;;;;;;;;;0.00;0.00;;;;;;;;4989101;28;10950;-74
2022/11/12 21:38:40;;;;;;;;;0.75;0.00;;;;;;;;4986484;28;11014;-74
2022/11/12 21:41:07;;;;;;;;;0.75;0.00;;;;;;;;4989264;28;8783;-74
2022/11/12 21:43:36;;;;;;;;;1.75;1.00;;;;;;;;4989139;28;11059;-74
2022/11/12 21:46:01;;;;;;;;;0.50;0.50;;;;;;;;4986295;28;10989;-73
2022/11/12 21:48:27;;;;;;;;;0.00;0.00;;;;;;;;4988909;28;11278;-75
2022/11/12 21:50:52;;;;;;;;;0.00;0.00;;;;;;;;4989256;28;8791;-74
2022/11/12 21:53:18;;;;;;;;;0.00;0.00;;;;;;;;4988953;28;8775;-75
2022/11/12 21:55:43;;;;;;;;;1.00;1.00;;;;;;;;4989146;28;8840;-74
2022/11/12 21:58:08;;;;;;;;;0.00;0.00;;;;;;;;4988935;28;9028;-73
2022/11/12 22:00:34;;;;;;;;;0.00;0.00;;;;;;;;4988961;28;8823;-74
2022/11/12 22:02:59;;;;;;;;;0.00;0.00;;;;;;;;4988613;28;8822;-74
2022/11/12 22:05:24;;;;;;;;;0.00;0.00;;;;;;;;4988806;28;8799;-73
2022/11/12 22:07:52;;;;;;;;;0.00;0.00;;;;;;;;4988582;28;8830;-74
2022/11/12 22:10:18;;;;;;;;;0.00;0.00;;;;;;;;4990746;28;8810;-74
2022/11/12 22:12:43;;;;;;;;;0.00;0.00;;;;;;;;4992780;28;11931;-74
2022/11/12 22:15:08;;;;;;;;;1.00;0.00;;;;;;;;4992514;28;8901;-74
2022/11/12 22:17:34;;;;;;;;;0.00;0.00;;;;;;;;4992537;28;8863;-74
2022/11/12 22:19:59;;;;;;;;;0.00;0.00;;;;;;;;4992448;28;8790;-74
2022/11/12 22:22:24;;;;;;;;;1.00;0.00;;;;;;;;4992728;28;8837;-75
2022/11/12 22:24:49;;;;;;;;;0.00;0.00;;;;;;;;4992415;28;8842;-75
2022/11/12 22:27:15;;;;;;;;;1.00;1.00;;;;;;;;4991192;28;8815;-74
2022/11/12 22:29:40;;;;;;;;;0.50;0.50;;;;;;;;4992618;28;8836;-72
2022/11/12 22:32:05;;;;;;;;;0.75;0.75;;;;;;;;4991798;28;8819;-73
2022/11/12 22:34:34;;;;;;;;;0.00;0.00;;;;;;;;4992349;28;8822;-73
2022/11/12 22:36:59;;;;;;;;;0.25;0.00;;;;;;;;4990783;28;8838;-73
2022/11/12 22:39:27;;;;;;;;;0.50;0.00;;;;;;;;4992251;28;10954;-73
2022/11/12 22:41:52;;;;;;;;;1.00;1.00;;;;;;;;4992358;28;8836;-73
2022/11/12 22:44:17;;;;;;;;;1.00;0.25;;;;;;;;4991759;28;11437;-73
2022/11/12 22:46:43;;;;;;;;;2.00;1.00;;;;;;;;4991780;28;8791;-74
2022/11/12 22:49:08;;;;;;;;;1.50;1.50;;;;;;;;4992157;28;8834;-75
2022/11/12 22:51:34;;;;;;;;;1.00;1.00;;;;;;;;4992313;28;8806;-75
2022/11/12 22:54:00;;;;;;;;;1.00;0.00;;;;;;;;4993614;28;8802;-75
2022/11/12 22:56:26;;;;;;;;;1.00;1.00;;;;;;;;4993558;28;11561;-75
2022/11/12 22:58:52;;;;;;;;;0.00;0.00;;;;;;;;4993279;28;11190;-75
2022/11/12 23:01:25;;;;;;;;;0.00;0.00;;;;;;;;4993764;28;8865;-74
2022/11/12 23:03:51;;;;;;;;;0.00;0.00;;;;;;;;4993294;28;11006;-74
2022/11/12 23:06:17;;;;;;;;;0.75;0.75;;;;;;;;4993025;28;11934;-74
2022/11/12 23:08:43;;;;;;;;;1.00;1.00;;;;;;;;4993245;28;11207;-73
2022/11/12 23:11:09;;;;;;;;;1.00;1.00;;;;;;;;4993306;28;8791;-74
2022/11/12 23:13:35;;;;;;;;;2.00;1.50;;;;;;;;4993228;28;8910;-75
2022/11/12 23:16:01;;;;;;;;;1.00;0.25;;;;;;;;4993221;28;11122;-74
2022/11/12 23:18:26;;;;;;;;;2.00;1.00;;;;;;;;4993443;28;8819;-75